Time;durP1;ratioP1;P1;durP2;ratioP2;P2;SDS_P1;SDS_P2;PMS_P1;PMS_P2;Temp;Humidity;BMP_temperature;BMP_pressure;BME280_temperature;BME280_humidity;BME280_pressure;Samples;Min_cycle;Max_cycle;Signal;HPM_P1;HPM_P2
2023/09/10 00:01:18;;;;;;;14.93;8.90;;;19.70;98.00;;;;;;5033930;28;20515;-70
2023/09/10 00:03:45;;;;;;;19.30;9.37;;;19.70;98.00;;;;;;5051904;28;20813;-69
2023/09/10 00:06:12;;;;;;;16.27;9.20;;;19.60;98.00;;;;;;5051883;28;20450;-70
2023/09/10 00:08:39;;;;;;;23.97;9.03;;;19.60;98.00;;;;;;5051625;28;20478;-72
2023/09/10 00:11:06;;;;;;;16.83;8.80;;;19.60;98.00;;;;;;5051841;28;20461;-71
2023/09/10 00:13:34;;;;;;;19.77;9.60;;;19.70;98.00;;;;;;5052012;28;20813;-72
2023/09/10 00:16:02;;;;;;;15.50;8.60;;;19.80;98.00;;;;;;5051546;28;20537;-70
2023/09/10 00:18:29;;;;;;;18.57;8.67;;;19.90;98.00;;;;;;5051729;28;20454;-69
2023/09/10 00:20:56;;;;;;;18.17;9.30;;;19.90;98.00;;;;;;5051504;28;20843;-69
2023/09/10 00:23:23;;;;;;;19.07;9.43;;;19.80;98.00;;;;;;5051616;28;20499;-70
2023/09/10 00:25:51;;;;;;;15.50;8.97;;;19.60;98.00;;;;;;5051411;28;20521;-69
2023/09/10 00:28:18;;;;;;;16.17;8.63;;;19.60;98.00;;;;;;5051301;28;20481;-70
2023/09/10 00:30:53;;;;;;;16.07;8.87;;;19.60;98.00;;;;;;5051367;28;20453;-69
2023/09/10 00:33:20;;;;;;;18.27;9.20;;;19.60;98.00;;;;;;5051568;28;20536;-70
2023/09/10 00:35:47;;;;;;;17.70;9.20;;;19.60;98.00;;;;;;5051243;28;20865;-71
2023/09/10 00:38:14;;;;;;;16.20;8.20;;;19.50;98.00;;;;;;5051251;28;20499;-69
2023/09/10 00:40:41;;;;;;;15.47;8.60;;;19.50;98.00;;;;;;5051162;28;20456;-69
2023/09/10 00:43:08;;;;;;;18.83;9.27;;;19.50;98.00;;;;;;5049791;28;20500;-70
2023/09/10 00:45:38;;;;;;;15.77;8.40;;;19.60;98.00;;;;;;5050979;28;20904;-71
2023/09/10 00:48:07;;;;;;;22.43;9.27;;;19.60;98.00;;;;;;5033905;28;20497;-71
2023/09/10 00:50:42;;;;;;;14.77;8.77;;;19.50;98.00;;;;;;5051078;28;20453;-69
2023/09/10 00:53:10;;;;;;;22.30;9.70;;;19.40;98.00;;;;;;5034871;28;20481;-70
2023/09/10 00:55:38;;;;;;;20.50;9.30;;;19.30;98.00;;;;;;5050892;28;20454;-69
2023/09/10 00:58:05;;;;;;;20.30;9.60;;;19.20;98.00;;;;;;5051163;28;20460;-72
2023/09/10 01:00:34;;;;;;;19.60;9.43;;;19.20;98.00;;;;;;5050618;28;21014;-70
2023/09/10 01:03:02;;;;;;;20.97;9.30;;;19.20;98.00;;;;;;5050727;28;20855;-69
2023/09/10 01:05:32;;;;;;;16.47;8.33;;;19.20;98.00;;;;;;5050838;28;20461;-71
2023/09/10 01:07:59;;;;;;;16.47;8.60;;;19.30;98.00;;;;;;5050785;28;20481;-70
2023/09/10 01:10:34;;;;;;;15.67;8.57;;;19.50;98.00;;;;;;5050854;28;20465;-71
2023/09/10 01:13:10;;;;;;;19.90;9.47;;;19.50;98.00;;;;;;5051027;28;20460;-71
2023/09/10 01:15:44;;;;;;;17.60;9.20;;;19.50;98.00;;;;;;5050824;28;20534;-71
2023/09/10 01:18:17;;;;;;;19.00;9.97;;;19.30;98.00;;;;;;5050933;28;20499;-72
2023/09/10 01:21:00;;;;;;;18.53;9.00;;;19.20;98.00;;;;;;5033219;28;20807;-69
2023/09/10 01:23:47;;;;;;;17.07;9.53;;;19.20;98.00;;;;;;5050959;28;20491;-70
2023/09/10 01:26:15;;;;;;;16.80;8.57;;;19.30;98.00;;;;;;5035630;28;20562;-70
2023/09/10 01:28:43;;;;;;;15.37;8.67;;;19.30;98.00;;;;;;5051028;28;20647;-70
2023/09/10 01:31:10;;;;;;;17.87;9.20;;;19.10;98.00;;;;;;5051083;28;20465;-71
2023/09/10 01:33:40;;;;;;;17.37;9.13;;;19.10;98.00;;;;;;5050708;28;20457;-69
2023/09/10 01:36:12;;;;;;;20.97;10.10;;;19.10;98.00;;;;;;5050668;28;20485;-70
2023/09/10 01:38:44;;;;;;;17.97;9.43;;;19.00;98.00;;;;;;5050859;28;20446;-69
2023/09/10 01:41:16;;;;;;;15.80;9.20;;;19.00;98.00;;;;;;5050823;28;20836;-71
2023/09/10 01:43:44;;;;;;;18.50;8.93;;;19.20;98.00;;;;;;5050601;28;20496;-71
2023/09/10 01:46:13;;;;;;;19.50;8.97;;;19.10;98.00;;;;;;5050712;28;20944;-71
2023/09/10 01:48:41;;;;;;;16.13;8.70;;;19.00;98.00;;;;;;5050764;28;20481;-70
2023/09/10 01:51:08;;;;;;;15.57;8.33;;;19.00;98.00;;;;;;5050405;28;20454;-70
2023/09/10 01:53:35;;;;;;;14.40;7.73;;;18.90;98.00;;;;;;5050509;28;20458;-71
2023/09/10 01:56:02;;;;;;;18.00;9.03;;;18.90;98.00;;;;;;5050473;28;20457;-70
2023/09/10 01:58:31;;;;;;;17.63;8.60;;;18.80;98.00;;;;;;5050383;28;20457;-71
2023/09/10 02:00:58;;;;;;;14.97;8.73;;;18.80;98.00;;;;;;5050279;28;20476;-69
2023/09/10 02:03:25;;;;;;;18.83;8.80;;;18.80;98.00;;;;;;5000243;28;20553;-69
2023/09/10 02:05:57;;;;;;;15.07;8.53;;;18.70;98.00;;;;;;5050331;28;20457;-70
2023/09/10 02:08:24;;;;;;;16.07;8.47;;;18.70;98.00;;;;;;5050466;28;20489;-71
2023/09/10 02:10:52;;;;;;;18.60;8.67;;;18.70;98.00;;;;;;5050304;28;20968;-71
2023/09/10 02:13:19;;;;;;;14.57;7.40;;;18.70;98.00;;;;;;5053701;28;20453;-71
2023/09/10 02:15:48;;;;;;;14.63;7.97;;;18.90;98.00;;;;;;5054046;28;20464;-69
2023/09/10 02:18:15;;;;;;;13.10;7.47;;;18.90;98.00;;;;;;5054081;28;20460;-70
2023/09/10 02:20:42;;;;;;;18.23;8.57;;;18.80;98.00;;;;;;5053732;28;20460;-70
2023/09/10 02:23:09;;;;;;;16.40;7.60;;;18.80;98.00;;;;;;5053802;28;20948;-70
2023/09/10 02:25:36;;;;;;;14.30;8.00;;;18.80;98.00;;;;;;5053626;28;20446;-70
2023/09/10 02:28:04;;;;;;;18.13;7.70;;;18.70;98.00;;;;;;5036203;28;20485;-70
2023/09/10 02:30:31;;;;;;;17.50;8.17;;;18.70;98.00;;;;;;5053748;28;20541;-71
2023/09/10 02:33:00;;;;;;;13.60;7.63;;;18.60;98.00;;;;;;5035863;28;20466;-70
2023/09/10 02:35:27;;;;;;;18.13;8.13;;;18.70;98.00;;;;;;5035546;28;20508;-70
2023/09/10 02:37:57;;;;;;;16.30;7.63;;;18.80;98.00;;;;;;5035852;28;20446;-70
2023/09/10 02:40:24;;;;;;;17.73;8.70;;;18.80;98.00;;;;;;5053430;28;20450;-70
2023/09/10 02:42:51;;;;;;;17.70;8.60;;;18.80;98.00;;;;;;5053313;28;20975;-70
2023/09/10 02:45:18;;;;;;;18.97;8.73;;;18.70;98.00;;;;;;5053421;28;20458;-69
2023/09/10 02:47:45;;;;;;;17.03;8.43;;;18.60;98.00;;;;;;5053247;28;20857;-70
2023/09/10 02:50:16;;;;;;;17.17;8.20;;;18.50;98.00;;;;;;5053342;28;20453;-70
2023/09/10 02:52:43;;;;;;;17.80;9.00;;;18.40;98.00;;;;;;5053117;28;20450;-70
2023/09/10 02:55:11;;;;;;;17.00;8.20;;;18.40;98.00;;;;;;5053331;28;20940;-69
2023/09/10 02:57:38;;;;;;;17.47;8.87;;;18.30;98.00;;;;;;5053130;28;20533;-70
2023/09/10 03:00:07;;;;;;;16.97;8.60;;;18.20;98.00;;;;;;5052949;28;21136;-69
2023/09/10 03:02:34;;;;;;;15.00;7.90;;;18.20;98.00;;;;;;5053245;28;20476;-69
2023/09/10 03:05:03;;;;;;;16.47;8.90;;;18.20;98.00;;;;;;5053130;28;20454;-71
2023/09/10 03:07:33;;;;;;;12.50;7.20;;;18.10;98.00;;;;;;5053118;28;20711;-70
2023/09/10 03:10:00;;;;;;;17.60;8.37;;;18.20;98.00;;;;;;5053181;28;20481;-70
2023/09/10 03:12:29;;;;;;;15.27;7.90;;;18.30;98.00;;;;;;5053151;28;20462;-69
2023/09/10 03:14:56;;;;;;;15.80;8.20;;;18.30;98.00;;;;;;5052929;28;20572;-70
2023/09/10 03:17:23;;;;;;;20.63;7.97;;;18.50;98.00;;;;;;5052882;28;20463;-70
2023/09/10 03:19:50;;;;;;;18.00;7.70;;;18.40;98.00;;;;;;5052840;28;20446;-69
2023/09/10 03:22:17;;;;;;;15.73;7.83;;;18.50;98.00;;;;;;5052991;28;20818;-69
2023/09/10 03:24:46;;;;;;;14.03;7.60;;;18.50;98.00;;;;;;5052303;28;20457;-70
2023/09/10 03:27:13;;;;;;;15.40;7.97;;;18.50;98.00;;;;;;5052519;28;20992;-72
2023/09/10 03:29:42;;;;;;;15.97;8.00;;;18.50;98.00;;;;;;5034785;28;20489;-69
2023/09/10 03:32:09;;;;;;;14.93;8.17;;;18.30;98.00;;;;;;5052386;28;20511;-70
2023/09/10 03:34:36;;;;;;;19.10;8.50;;;18.20;98.00;;;;;;5052468;28;20446;-69
2023/09/10 03:37:05;;;;;;;14.30;8.07;;;18.20;98.00;;;;;;5052332;28;20457;-71
2023/09/10 03:39:33;;;;;;;16.50;8.77;;;18.10;98.00;;;;;;5052309;28;20476;-70
2023/09/10 03:42:01;;;;;;;17.60;8.00;;;18.00;98.00;;;;;;5052280;28;20816;-70
2023/09/10 03:44:28;;;;;;;15.10;8.83;;;17.90;98.00;;;;;;5052339;28;20454;-69
2023/09/10 03:46:55;;;;;;;14.43;7.70;;;17.90;98.00;;;;;;5052137;28;20948;-70
2023/09/10 03:49:22;;;;;;;17.63;8.20;;;18.10;98.00;;;;;;5034487;28;21039;-70
2023/09/10 03:51:50;;;;;;;19.73;7.93;;;18.10;98.00;;;;;;5052058;28;20952;-69
2023/09/10 03:54:17;;;;;;;19.83;8.83;;;17.90;98.00;;;;;;5052390;28;20504;-69
2023/09/10 03:56:44;;;;;;;18.40;8.90;;;17.90;98.00;;;;;;5051899;28;20450;-70
2023/09/10 03:59:13;;;;;;;16.67;8.40;;;17.80;98.00;;;;;;5051991;28;20485;-71
2023/09/10 04:01:40;;;;;;;18.60;8.47;;;17.80;98.00;;;;;;5051684;28;20485;-69
2023/09/10 04:04:07;;;;;;;17.50;8.67;;;17.90;98.00;;;;;;5051952;28;20438;-71
2023/09/10 04:06:34;;;;;;;17.53;8.33;;;17.90;98.00;;;;;;5050886;28;20464;-70
2023/09/10 04:09:03;;;;;;;17.37;8.10;;;17.90;98.00;;;;;;5051853;28;20504;-69
2023/09/10 04:11:31;;;;;;;14.47;7.83;;;17.90;98.00;;;;;;5051814;28;20533;-69
2023/09/10 04:13:58;;;;;;;17.40;8.70;;;17.90;98.00;;;;;;5033891;28;20454;-69
2023/09/10 04:16:27;;;;;;;19.73;9.67;;;18.00;98.00;;;;;;5034195;28;20545;-69
2023/09/10 04:18:54;;;;;;;15.77;7.93;;;18.10;98.00;;;;;;5051766;28;20460;-70
2023/09/10 04:21:21;;;;;;;17.63;8.43;;;18.00;98.00;;;;;;5051883;28;20792;-70
2023/09/10 04:23:48;;;;;;;21.07;8.97;;;17.90;98.00;;;;;;5051780;28;20454;-69
2023/09/10 04:26:15;;;;;;;14.50;7.40;;;18.00;98.00;;;;;;5051683;28;20947;-70
2023/09/10 04:28:42;;;;;;;16.17;8.60;;;17.80;98.00;;;;;;5051422;28;20478;-70
2023/09/10 04:31:16;;;;;;;18.93;8.87;;;17.80;98.00;;;;;;5051340;28;20507;-69
2023/09/10 04:33:45;;;;;;;15.40;8.67;;;17.70;98.00;;;;;;5034134;28;20515;-70
2023/09/10 04:36:13;;;;;;;17.70;8.90;;;17.60;98.00;;;;;;5051058;28;20455;-69
2023/09/10 04:38:41;;;;;;;16.53;8.57;;;17.60;98.00;;;;;;5051287;28;20489;-69
2023/09/10 04:41:08;;;;;;;15.50;8.00;;;17.60;98.00;;;;;;5051307;28;20527;-70
2023/09/10 04:43:35;;;;;;;16.17;8.50;;;17.60;98.00;;;;;;5051297;28;20491;-69
2023/09/10 04:46:02;;;;;;;15.40;8.10;;;17.70;98.00;;;;;;5051157;28;20508;-69
2023/09/10 04:48:29;;;;;;;13.30;7.43;;;17.70;98.00;;;;;;5051281;28;20450;-69
2023/09/10 04:50:57;;;;;;;14.40;8.00;;;17.80;98.00;;;;;;5051320;28;20476;-69
2023/09/10 04:53:24;;;;;;;16.27;8.17;;;17.80;98.00;;;;;;5051508;28;20952;-70
2023/09/10 04:55:55;;;;;;;14.40;7.57;;;17.70;98.00;;;;;;5049820;28;20469;-69
2023/09/10 04:58:22;;;;;;;16.80;8.30;;;17.60;98.00;;;;;;5051190;28;20798;-70
2023/09/10 05:00:50;;;;;;;17.23;7.93;;;17.60;98.00;;;;;;5050920;28;20460;-69
2023/09/10 05:03:21;;;;;;;14.10;8.20;;;17.50;98.00;;;;;;5051131;28;20493;-70
2023/09/10 05:05:48;;;;;;;19.80;8.47;;;17.50;98.00;;;;;;5051087;28;20951;-69
2023/09/10 05:08:17;;;;;;;16.50;8.10;;;17.40;98.00;;;;;;5051009;28;20458;-69
2023/09/10 05:10:48;;;;;;;15.87;8.63;;;17.60;98.00;;;;;;5032908;28;20456;-70
2023/09/10 05:13:15;;;;;;;17.27;8.50;;;17.70;98.00;;;;;;5050890;28;20512;-70
2023/09/10 05:15:42;;;;;;;17.10;8.03;;;17.70;98.00;;;;;;5051096;28;20453;-69
2023/09/10 05:18:09;;;;;;;14.73;7.80;;;17.80;98.00;;;;;;5050779;28;20461;-70
2023/09/10 05:20:36;;;;;;;19.00;9.40;;;17.80;98.00;;;;;;5050714;28;20568;-70
2023/09/10 05:23:04;;;;;;;17.00;8.40;;;17.80;98.00;;;;;;5033361;28;20453;-69
2023/09/10 05:25:37;;;;;;;18.47;8.73;;;17.80;98.00;;;;;;5050643;28;20457;-71
2023/09/10 05:28:05;;;;;;;13.80;7.60;;;17.70;98.00;;;;;;5050667;28;20458;-69
2023/09/10 05:30:32;;;;;;;16.37;8.20;;;17.60;98.00;;;;;;5050376;28;20485;-72
2023/09/10 05:32:59;;;;;;;15.90;8.30;;;17.50;98.00;;;;;;5050850;28;20457;-69
2023/09/10 05:35:29;;;;;;;17.67;8.80;;;17.50;98.00;;;;;;5050563;28;20449;-69
2023/09/10 05:37:56;;;;;;;17.00;8.20;;;17.50;98.00;;;;;;5033349;28;20492;-70
2023/09/10 05:40:25;;;;;;;18.00;9.43;;;17.50;98.00;;;;;;5050599;28;20461;-71
2023/09/10 05:42:53;;;;;;;18.77;9.10;;;17.50;98.00;;;;;;5050404;28;20884;-69
2023/09/10 05:45:21;;;;;;;18.53;8.50;;;17.60;98.00;;;;;;5050419;28;20446;-69
2023/09/10 05:47:48;;;;;;;15.20;7.87;;;17.80;98.00;;;;;;5053130;28;20470;-71
2023/09/10 05:50:15;;;;;;;16.43;8.60;;;17.90;98.00;;;;;;5054123;28;20551;-70
2023/09/10 05:52:42;;;;;;;22.60;8.57;;;17.90;98.00;;;;;;5054123;28;20441;-70
2023/09/10 05:55:13;;;;;;;16.57;8.43;;;18.00;98.00;;;;;;5054352;28;20485;-71
2023/09/10 05:57:40;;;;;;;18.13;9.47;;;18.20;98.00;;;;;;5036835;28;20449;-70
2023/09/10 06:00:10;;;;;;;19.27;9.90;;;18.30;98.00;;;;;;5054060;28;20834;-71
2023/09/10 06:02:37;;;;;;;16.00;9.57;;;18.40;98.00;;;;;;5054062;28;20465;-70
2023/09/10 06:05:05;;;;;;;21.77;8.90;;;18.30;98.00;;;;;;5054158;28;20460;-69
2023/09/10 06:07:32;;;;;;;18.17;9.00;;;18.20;98.00;;;;;;5053995;28;20441;-71
2023/09/10 06:09:59;;;;;;;17.43;8.10;;;18.10;98.00;;;;;;5054079;28;20484;-71
2023/09/10 06:12:26;;;;;;;13.17;7.40;;;18.20;98.00;;;;;;5053908;28;20510;-69
2023/09/10 06:14:53;;;;;;;21.10;9.73;;;18.10;98.00;;;;;;5053904;28;20459;-70
2023/09/10 06:17:21;;;;;;;15.10;8.30;;;18.10;98.00;;;;;;5053747;28;20448;-71
2023/09/10 06:19:51;;;;;;;17.63;9.27;;;18.20;98.00;;;;;;5053768;28;20534;-71
2023/09/10 06:22:18;;;;;;;16.90;8.80;;;18.20;98.00;;;;;;5053659;28;20456;-70
2023/09/10 06:24:45;;;;;;;17.73;9.57;;;18.30;98.00;;;;;;5053898;28;20449;-66
2023/09/10 06:27:12;;;;;;;20.33;10.03;;;18.40;98.00;;;;;;5053739;28;20441;-66
2023/09/10 06:29:39;;;;;;;18.57;10.30;;;18.50;98.00;;;;;;5053654;28;20516;-66
2023/09/10 06:32:06;;;;;;;18.23;9.50;;;18.70;98.00;;;;;;5053878;28;20450;-65
2023/09/10 06:34:35;;;;;;;16.70;9.10;;;18.70;98.00;;;;;;5053937;28;20502;-66
2023/09/10 06:37:02;;;;;;;21.10;10.90;;;18.80;98.00;;;;;;5054042;28;20450;-67
2023/09/10 06:39:30;;;;;;;16.43;8.70;;;18.90;98.00;;;;;;5053989;28;20500;-67
2023/09/10 06:41:58;;;;;;;18.93;9.10;;;18.90;98.00;;;;;;5036304;28;20453;-67
2023/09/10 06:44:25;;;;;;;20.27;10.37;;;19.10;98.00;;;;;;5053677;28;20461;-66
2023/09/10 06:46:52;;;;;;;15.53;8.70;;;19.20;98.00;;;;;;5053698;28;20454;-67
2023/09/10 06:49:19;;;;;;;17.00;9.27;;;19.30;98.00;;;;;;5053475;28;20504;-66
2023/09/10 06:51:48;;;;;;;19.70;10.00;;;19.40;98.00;;;;;;5053333;28;20450;-66
2023/09/10 06:54:15;;;;;;;21.47;9.90;;;19.60;98.00;;;;;;5053474;28;20458;-66
2023/09/10 06:56:42;;;;;;;16.70;9.93;;;19.80;98.00;;;;;;5054283;28;20452;-66
2023/09/10 06:59:09;;;;;;;20.77;9.40;;;19.90;98.00;;;;;;5054127;28;20457;-66
2023/09/10 07:01:37;;;;;;;18.40;9.53;;;19.90;98.00;;;;;;5054179;28;20465;-66
2023/09/10 07:04:17;;;;;;;22.00;10.00;;;19.90;98.00;;;;;;5053706;28;20545;-66
2023/09/10 07:06:45;;;;;;;18.30;9.63;;;19.90;98.00;;;;;;5053162;28;20489;-66
2023/09/10 07:09:13;;;;;;;15.40;8.47;;;19.90;98.00;;;;;;5054142;28;20496;-67
2023/09/10 07:11:40;;;;;;;18.70;8.97;;;20.00;98.00;;;;;;5054157;28;20458;-66
2023/09/10 07:14:07;;;;;;;19.00;9.60;;;20.00;98.00;;;;;;5053816;28;20800;-67
2023/09/10 07:16:35;;;;;;;19.23;9.00;;;20.10;98.00;;;;;;5052992;28;20465;-66
2023/09/10 07:19:02;;;;;;;17.77;9.50;;;20.10;98.00;;;;;;5035395;28;20521;-66
2023/09/10 07:21:30;;;;;;;17.03;8.67;;;20.30;98.00;;;;;;5035585;28;20488;-66
2023/09/10 07:23:57;;;;;;;16.87;9.07;;;20.40;98.00;;;;;;5053703;28;20453;-66
2023/09/10 07:26:25;;;;;;;16.67;8.90;;;20.60;98.00;;;;;;5053540;28;20458;-66
2023/09/10 07:28:52;;;;;;;18.20;9.00;;;20.80;98.00;;;;;;5053343;28;20947;-66
2023/09/10 07:31:19;;;;;;;17.50;9.77;;;20.90;98.00;;;;;;5053186;28;20532;-68
2023/09/10 07:33:46;;;;;;;25.20;9.13;;;20.90;98.00;;;;;;5053579;28;20458;-66
2023/09/10 07:36:13;;;;;;;19.40;9.10;;;21.10;98.00;;;;;;5053545;28;20492;-66
2023/09/10 07:38:40;;;;;;;17.67;9.30;;;21.10;98.00;;;;;;5053169;28;20454;-67
2023/09/10 07:41:07;;;;;;;14.27;8.63;;;21.20;98.00;;;;;;5035179;28;20449;-66
2023/09/10 07:43:36;;;;;;;17.63;8.87;;;21.30;98.00;;;;;;5053277;28;20932;-67
2023/09/10 07:46:03;;;;;;;19.17;9.40;;;21.40;98.00;;;;;;5053388;28;20477;-66
2023/09/10 07:48:30;;;;;;;16.93;8.83;;;21.50;98.00;;;;;;5053140;28;20453;-66
2023/09/10 07:50:58;;;;;;;19.73;10.00;;;21.60;98.00;;;;;;5053292;28;20558;-67
2023/09/10 07:53:26;;;;;;;17.83;10.03;;;21.80;98.00;;;;;;5053477;28;20457;-66
2023/09/10 07:55:53;;;;;;;20.30;9.93;;;21.90;98.00;;;;;;5053039;28;20453;-67
2023/09/10 07:58:20;;;;;;;17.37;9.17;;;21.90;98.00;;;;;;5034833;28;20464;-66
2023/09/10 08:00:50;;;;;;;17.37;9.30;;;22.10;98.00;;;;;;5035076;28;20470;-67
2023/09/10 08:03:17;;;;;;;18.20;10.10;;;22.20;98.00;;;;;;5053096;28;20450;-67
2023/09/10 08:05:44;;;;;;;17.80;9.50;;;22.30;98.00;;;;;;5053009;28;20446;-67
2023/09/10 08:08:12;;;;;;;22.20;9.90;;;22.40;98.00;;;;;;5053091;28;20449;-66
2023/09/10 08:10:40;;;;;;;19.80;9.77;;;22.60;98.00;;;;;;5046464;28;20600;-66
2023/09/10 08:13:07;;;;;;;16.63;9.00;;;22.70;98.00;;;;;;5035316;28;20499;-67
2023/09/10 08:15:34;;;;;;;16.67;9.13;;;22.80;98.00;;;;;;5052384;28;20511;-67
2023/09/10 08:18:03;;;;;;;17.00;9.60;;;22.80;98.00;;;;;;5052525;28;20454;-67
2023/09/10 08:20:30;;;;;;;15.43;8.90;;;22.90;98.00;;;;;;5033932;28;20462;-67
2023/09/10 08:22:58;;;;;;;18.40;9.17;;;22.90;98.00;;;;;;5046407;28;20958;-67
2023/09/10 08:25:25;;;;;;;17.27;9.23;;;23.10;98.00;;;;;;5032161;28;20458;-66
2023/09/10 08:27:52;;;;;;;21.43;9.73;;;23.40;98.00;;;;;;5039440;28;20482;-67
2023/09/10 08:30:19;;;;;;;16.87;9.10;;;23.60;98.00;;;;;;5052553;28;20559;-67
2023/09/10 08:32:47;;;;;;;15.67;8.83;;;23.70;98.00;;;;;;5052035;28;20457;-67
2023/09/10 08:35:18;;;;;;;24.53;10.50;;;23.80;98.00;;;;;;5052113;28;20461;-65
2023/09/10 08:37:45;;;;;;;16.60;9.13;;;24.00;98.00;;;;;;5051714;28;20465;-68
2023/09/10 08:40:13;;;;;;;16.23;9.30;;;24.10;98.00;;;;;;5051486;28;20943;-66
2023/09/10 08:42:46;;;;;;;15.33;8.57;;;24.20;98.00;;;;;;5051629;28;20450;-65
2023/09/10 08:45:14;;;;;;;16.53;9.33;;;24.30;98.00;;;;;;5051963;28;20457;-65
2023/09/10 08:47:43;;;;;;;17.10;9.07;;;24.40;98.00;;;;;;5051534;28;20456;-65
2023/09/10 08:50:12;;;;;;;18.50;9.40;;;24.50;98.00;;;;;;5051902;28;20492;-64
2023/09/10 08:52:42;;;;;;;16.30;8.97;;;24.70;98.00;;;;;;5033752;28;20541;-65
2023/09/10 08:55:11;;;;;;;13.70;8.07;;;24.70;98.00;;;;;;5051864;28;20445;-65
2023/09/10 08:57:39;;;;;;;17.17;9.73;;;24.90;98.00;;;;;;5039071;28;20872;-65
2023/09/10 09:00:10;;;;;;;16.60;9.47;;;25.00;98.00;;;;;;5022220;28;20454;-66
2023/09/10 09:02:38;;;;;;;16.00;8.53;;;25.20;98.00;;;;;;5021171;28;20800;-65
2023/09/10 09:05:06;;;;;;;16.70;9.43;;;25.20;98.00;;;;;;5020374;28;20533;-64
2023/09/10 09:07:37;;;;;;;15.97;9.03;;;25.30;98.00;;;;;;5029006;28;20454;-65
2023/09/10 09:10:09;;;;;;;18.03;9.40;;;25.30;98.00;;;;;;5032077;28;20483;-66
2023/09/10 09:12:39;;;;;;;14.80;9.17;;;25.40;98.00;;;;;;5031322;28;20455;-65
2023/09/10 09:15:09;;;;;;;18.90;9.50;;;25.60;98.00;;;;;;5030351;28;20466;-66
2023/09/10 09:17:39;;;;;;;15.23;9.20;;;25.60;98.00;;;;;;5031587;28;20493;-65
2023/09/10 09:20:11;;;;;;;20.10;8.63;;;25.80;98.00;;;;;;5031780;28;20505;-66
2023/09/10 09:22:43;;;;;;;17.40;9.67;;;26.00;98.00;;;;;;5035864;28;20534;-65
2023/09/10 09:25:12;;;;;;;19.27;9.87;;;26.20;98.00;;;;;;5035496;28;20553;-66
2023/09/10 09:27:39;;;;;;;14.87;9.30;;;26.30;98.00;;;;;;5035916;28;20959;-66
2023/09/10 09:30:08;;;;;;;18.43;9.10;;;26.50;98.00;;;;;;5044969;28;20523;-66
2023/09/10 09:32:37;;;;;;;16.77;8.83;;;26.40;98.00;;;;;;5055680;28;20449;-66
2023/09/10 09:35:05;;;;;;;16.23;8.70;;;26.30;98.00;;;;;;5055740;28;20474;-67
2023/09/10 09:37:32;;;;;;;14.23;8.40;;;26.40;98.00;;;;;;5055426;28;20458;-67
2023/09/10 09:40:03;;;;;;;16.27;9.07;;;26.50;98.00;;;;;;5055506;28;20540;-65
2023/09/10 09:42:33;;;;;;;15.00;8.03;;;26.70;98.00;;;;;;5038205;28;20449;-65
2023/09/10 09:45:04;;;;;;;13.83;8.80;;;26.90;98.00;;;;;;5055390;28;20472;-65
2023/09/10 09:47:31;;;;;;;25.37;9.37;;;27.20;98.00;;;;;;5055158;28;20449;-64
2023/09/10 09:49:59;;;;;;;15.40;9.10;;;27.10;98.00;;;;;;5037871;28;20454;-65
2023/09/10 09:52:26;;;;;;;18.20;9.57;;;27.20;98.00;;;;;;5055408;28;20450;-66
2023/09/10 09:54:53;;;;;;;18.90;9.03;;;27.30;98.00;;;;;;5030122;28;20507;-65
2023/09/10 09:57:20;;;;;;;15.37;9.10;;;27.40;98.00;;;;;;5055088;28;20498;-65
2023/09/10 09:59:49;;;;;;;13.77;8.60;;;27.40;98.00;;;;;;5054944;28;20446;-65
2023/09/10 10:02:18;;;;;;;16.90;9.13;;;27.60;98.00;;;;;;5054887;28;20564;-65
2023/09/10 10:04:46;;;;;;;15.73;9.40;;;27.90;98.00;;;;;;5054580;28;20924;-63
2023/09/10 10:07:14;;;;;;;15.83;8.47;;;28.10;98.00;;;;;;5055106;28;20454;-63
2023/09/10 10:09:42;;;;;;;19.43;9.20;;;28.10;98.00;;;;;;5054716;28;20458;-63
2023/09/10 10:12:11;;;;;;;16.03;9.40;;;28.40;98.00;;;;;;5054357;28;20999;-63
2023/09/10 10:14:38;;;;;;;16.67;9.43;;;28.60;98.00;;;;;;5054549;28;20457;-63
2023/09/10 10:17:07;;;;;;;15.03;8.83;;;28.90;98.00;;;;;;5043333;28;20458;-63
2023/09/10 10:19:34;;;;;;;15.30;9.40;;;29.10;98.00;;;;;;5054633;28;20872;-64
2023/09/10 10:22:04;;;;;;;17.07;8.70;;;29.20;98.00;;;;;;5054492;28;20495;-64
2023/09/10 10:24:32;;;;;;;15.23;8.80;;;29.40;98.00;;;;;;5054747;28;20454;-65
2023/09/10 10:27:02;;;;;;;15.67;9.00;;;29.50;98.00;;;;;;5054546;28;20873;-65
2023/09/10 10:29:31;;;;;;;13.90;8.70;;;29.60;98.00;;;;;;5054613;28;20940;-64
2023/09/10 10:32:05;;;;;;;19.90;9.67;;;29.70;98.00;;;;;;5053763;28;20485;-65
2023/09/10 10:34:38;;;;;;;15.87;9.13;;;29.90;98.00;;;;;;5054400;28;20464;-65
2023/09/10 10:37:15;;;;;;;16.40;9.10;;;30.00;98.00;;;;;;5054370;28;20516;-65
2023/09/10 10:39:54;;;;;;;23.30;9.50;;;29.90;98.00;;;;;;5054396;28;20853;-64
2023/09/10 10:42:36;;;;;;;16.30;8.67;;;29.90;98.00;;;;;;5054225;28;20457;-64
2023/09/10 10:45:06;;;;;;;18.03;9.67;;;30.10;98.00;;;;;;5054343;28;20454;-64
2023/09/10 10:47:38;;;;;;;16.27;9.43;;;30.20;98.00;;;;;;5054196;28;20457;-64
2023/09/10 10:50:10;;;;;;;25.13;9.70;;;30.20;98.00;;;;;;5054354;28;20628;-64
2023/09/10 10:52:44;;;;;;;14.33;9.00;;;30.30;98.00;;;;;;5053953;28;20445;-63
2023/09/10 10:55:13;;;;;;;14.73;8.87;;;30.50;98.00;;;;;;5054182;28;20504;-64
2023/09/10 10:57:40;;;;;;;14.63;9.10;;;30.70;98.00;;;;;;5053842;28;20920;-63
2023/09/10 11:00:09;;;;;;;18.17;10.27;;;30.90;98.00;;;;;;5053965;28;20466;-62
2023/09/10 11:02:36;;;;;;;16.27;9.10;;;31.00;98.00;;;;;;5053861;28;20484;-64
2023/09/10 11:05:07;;;;;;;16.70;9.60;;;31.00;98.00;;;;;;5053978;28;20458;-64
2023/09/10 11:07:35;;;;;;;16.57;9.27;;;31.10;98.00;;;;;;5053844;28;20458;-65
2023/09/10 11:10:42;;;;;;;14.47;9.23;;;31.30;98.00;;;;;;5053856;28;20989;-66
2023/09/10 11:13:11;;;;;;;14.77;9.03;;;31.40;98.00;;;;;;5053901;28;20516;-65
2023/09/10 11:16:17;;;;;;;17.27;9.00;;;31.70;98.00;;;;;;5053610;28;20445;-66
2023/09/10 11:18:45;;;;;;;15.30;9.20;;;32.00;98.00;;;;;;5053699;28;20557;-66
2023/09/10 11:21:15;;;;;;;16.93;8.80;;;32.40;98.00;;;;;;5053931;28;20491;-64
2023/09/10 11:24:20;;;;;;;20.60;9.90;;;32.50;98.00;;;;;;5020015;28;20449;-65
2023/09/10 11:26:48;;;;;;;18.10;10.03;;;32.70;96.60;;;;;;5053416;28;20453;-65
2023/09/10 11:29:17;;;;;;;19.00;10.30;;;32.70;93.90;;;;;;5053849;28;20511;-65
2023/09/10 11:31:47;;;;;;;15.13;9.40;;;32.50;96.00;;;;;;5053860;28;20489;-65
2023/09/10 11:34:34;;;;;;;18.30;8.90;;;32.70;95.40;;;;;;5053915;28;20936;-65
2023/09/10 11:37:04;;;;;;;15.67;9.77;;;33.00;95.90;;;;;;5053344;28;20466;-65
2023/09/10 11:39:36;;;;;;;15.70;9.20;;;33.30;94.20;;;;;;5053652;28;20446;-64
2023/09/10 11:42:04;;;;;;;14.27;8.60;;;33.70;95.20;;;;;;5053234;28;20477;-64
2023/09/10 11:44:31;;;;;;;13.03;8.60;;;33.70;93.10;;;;;;5051965;28;20814;-65
2023/09/10 11:46:58;;;;;;;14.70;8.50;;;33.90;93.70;;;;;;5053103;28;20453;-65
2023/09/10 11:49:26;;;;;;;14.53;9.00;;;33.80;92.50;;;;;;5035531;28;20446;-64
2023/09/10 11:51:56;;;;;;;13.63;8.30;;;34.10;92.00;;;;;;5053052;28;20862;-64
2023/09/10 11:54:25;;;;;;;15.00;8.50;;;34.20;91.40;;;;;;5052836;28;20450;-64
2023/09/10 11:56:53;;;;;;;13.50;9.00;;;34.20;89.50;;;;;;5035297;28;20450;-63
2023/09/10 11:59:23;;;;;;;14.57;9.90;;;34.30;88.80;;;;;;5052821;28;20867;-63
2023/09/10 12:01:51;;;;;;;15.93;9.40;;;34.30;88.60;;;;;;5052630;28;20473;-63
2023/09/10 12:04:19;;;;;;;14.23;9.27;;;34.30;90.50;;;;;;5052680;28;20478;-62
2023/09/10 12:06:47;;;;;;;13.10;8.50;;;34.60;89.90;;;;;;5052493;28;20454;-64
2023/09/10 12:09:18;;;;;;;14.20;8.17;;;35.00;89.30;;;;;;5035054;28;20476;-65
2023/09/10 12:11:48;;;;;;;15.43;8.63;;;35.30;88.00;;;;;;5052512;28;20485;-64
2023/09/10 12:14:16;;;;;;;15.67;8.70;;;35.30;88.30;;;;;;5052695;28;20453;-64
2023/09/10 12:16:43;;;;;;;13.60;8.80;;;35.30;87.10;;;;;;5052438;28;20446;-65
2023/09/10 12:19:10;;;;;;;13.87;8.70;;;35.60;87.20;;;;;;5018577;28;20446;-63
2023/09/10 12:21:37;;;;;;;12.03;8.20;;;35.50;87.40;;;;;;5052281;28;20578;-64
2023/09/10 12:24:05;;;;;;;14.47;8.80;;;35.60;87.00;;;;;;5034816;28;20446;-64
2023/09/10 12:26:35;;;;;;;13.80;8.80;;;35.70;87.10;;;;;;5052212;28;20477;-64
2023/09/10 12:29:04;;;;;;;16.87;9.17;;;35.70;89.10;;;;;;5052432;28;20530;-64
2023/09/10 12:31:31;;;;;;;12.37;8.53;;;35.50;86.40;;;;;;5052154;28;21047;-63
2023/09/10 12:33:58;;;;;;;13.60;9.00;;;35.20;86.20;;;;;;5052276;28;21103;-63
2023/09/10 12:36:26;;;;;;;17.73;8.57;;;35.10;87.40;;;;;;5052275;28;20532;-63
2023/09/10 12:38:54;;;;;;;12.67;7.87;;;35.30;85.80;;;;;;5052165;28;20450;-64
2023/09/10 12:41:21;;;;;;;16.00;8.17;;;35.20;84.20;;;;;;5052210;28;20461;-63
2023/09/10 12:43:48;;;;;;;13.30;8.60;;;35.10;86.00;;;;;;5052330;28;20454;-64